sensor_id;sensor_type;location;lat;lon;timestamp;P1;P2;P0
45700;PMS5003;36277;32.852;-116.998;2024-01-30T00:00:03;0.20;0.20;0.20
45700;PMS5003;36277;32.852;-116.998;2024-01-30T00:02:31;0.00;0.00;0.00
45700;PMS5003;36277;32.852;-116.998;2024-01-30T00:04:58;0.00;0.00;0.00
45700;PMS5003;36277;32.852;-116.998;2024-01-30T00:07:24;0.00;0.00;0.00
45700;PMS5003;36277;32.852;-116.998;2024-01-30T00:09:50;0.00;0.00;0.00
45700;PMS5003;36277;32.852;-116.998;2024-01-30T00:12:16;0.40;0.40;0.40
45700;PMS5003;36277;32.852;-116.998;2024-01-30T00:14:43;0.00;0.00;0.00
45700;PMS5003;36277;32.852;-116.998;2024-01-30T00:17:09;0.00;0.00;0.00
45700;PMS5003;36277;32.852;-116.998;2024-01-30T00:19:35;0.00;0.00;0.00
45700;PMS5003;36277;32.852;-116.998;2024-01-30T00:22:01;0.00;0.00;0.00
45700;PMS5003;36277;32.852;-116.998;2024-01-30T00:24:28;0.40;0.40;0.00
45700;PMS5003;36277;32.852;-116.998;2024-01-30T00:26:54;0.00;0.00;0.00
45700;PMS5003;36277;32.852;-116.998;2024-01-30T00:29:21;0.20;0.20;0.00
45700;PMS5003;36277;32.852;-116.998;2024-01-30T00:31:48;0.40;0.40;0.40
45700;PMS5003;36277;32.852;-116.998;2024-01-30T00:34:14;0.00;0.00;0.00
45700;PMS5003;36277;32.852;-116.998;2024-01-30T00:36:40;0.00;0.00;0.00
45700;PMS5003;36277;32.852;-116.998;2024-01-30T00:39:07;0.00;0.00;0.00
45700;PMS5003;36277;32.852;-116.998;2024-01-30T00:41:35;0.00;0.00;0.00
45700;PMS5003;36277;32.852;-116.998;2024-01-30T00:44:01;0.00;0.00;0.00
45700;PMS5003;36277;32.852;-116.998;2024-01-30T00:46:27;0.00;0.00;0.00
45700;PMS5003;36277;32.852;-116.998;2024-01-30T00:48:54;2.40;2.40;1.80
45700;PMS5003;36277;32.852;-116.998;2024-01-30T00:51:20;4.00;4.00;3.40
45700;PMS5003;36277;32.852;-116.998;2024-01-30T00:53:46;13.20;13.20;10.80
45700;PMS5003;36277;32.852;-116.998;2024-01-30T00:56:13;14.60;14.60;11.60
45700;PMS5003;36277;32.852;-116.998;2024-01-30T00:58:39;23.80;23.80;19.20
45700;PMS5003;36277;32.852;-116.998;2024-01-30T01:01:05;21.60;21.60;17.80
45700;PMS5003;36277;32.852;-116.998;2024-01-30T01:03:32;22.80;22.80;19.20
45700;PMS5003;36277;32.852;-116.998;2024-01-30T01:05:59;30.50;30.50;24.00
45700;PMS5003;36277;32.852;-116.998;2024-01-30T01:08:25;42.00;38.25;28.00
45700;PMS5003;36277;32.852;-116.998;2024-01-30T01:10:52;34.25;33.50;24.00
45700;PMS5003;36277;32.852;-116.998;2024-01-30T01:13:19;31.00;31.00;23.75
45700;PMS5003;36277;32.852;-116.998;2024-01-30T01:15:45;28.75;28.75;21.25
45700;PMS5003;36277;32.852;-116.998;2024-01-30T01:18:11;26.20;26.20;21.40
45700;PMS5003;36277;32.852;-116.998;2024-01-30T01:20:37;25.00;25.00;22.25
45700;PMS5003;36277;32.852;-116.998;2024-01-30T01:23:04;26.20;26.20;19.60
45700;PMS5003;36277;32.852;-116.998;2024-01-30T01:25:30;24.80;24.80;20.00
45700;PMS5003;36277;32.852;-116.998;2024-01-30T01:27:56;22.20;22.20;18.20
45700;PMS5003;36277;32.852;-116.998;2024-01-30T01:30:23;23.20;23.20;18.00
45700;PMS5003;36277;32.852;-116.998;2024-01-30T01:32:51;20.40;20.40;18.00
45700;PMS5003;36277;32.852;-116.998;2024-01-30T01:35:23;21.20;21.20;18.60
45700;PMS5003;36277;32.852;-116.998;2024-01-30T01:37:53;24.80;24.80;19.80
45700;PMS5003;36277;32.852;-116.998;2024-01-30T01:40:25;23.20;23.20;20.00
45700;PMS5003;36277;32.852;-116.998;2024-01-30T01:42:52;25.60;25.60;20.40
45700;PMS5003;36277;32.852;-116.998;2024-01-30T01:45:20;23.40;23.40;18.00
45700;PMS5003;36277;32.852;-116.998;2024-01-30T01:47:50;25.00;25.00;20.80
45700;PMS5003;36277;32.852;-116.998;2024-01-30T01:50:17;18.60;18.60;14.60
45700;PMS5003;36277;32.852;-116.998;2024-01-30T01:52:49;19.80;19.80;16.60
45700;PMS5003;36277;32.852;-116.998;2024-01-30T01:55:16;18.40;18.40;16.00
45700;PMS5003;36277;32.852;-116.998;2024-01-30T01:57:47;17.80;17.80;15.40
45700;PMS5003;36277;32.852;-116.998;2024-01-30T02:00:13;16.80;16.80;12.00
45700;PMS5003;36277;32.852;-116.998;2024-01-30T02:02:41;18.40;18.40;14.80
45700;PMS5003;36277;32.852;-116.998;2024-01-30T02:05:09;20.00;20.00;16.20
45700;PMS5003;36277;32.852;-116.998;2024-01-30T02:07:35;15.40;15.40;12.20
45700;PMS5003;36277;32.852;-116.998;2024-01-30T02:10:02;18.40;18.40;13.80
45700;PMS5003;36277;32.852;-116.998;2024-01-30T02:12:29;18.60;18.60;14.20
45700;PMS5003;36277;32.852;-116.998;2024-01-30T02:14:55;21.20;21.20;17.60
45700;PMS5003;36277;32.852;-116.998;2024-01-30T02:17:22;17.00;17.00;14.00
45700;PMS5003;36277;32.852;-116.998;2024-01-30T02:19:49;13.60;13.60;12.00
45700;PMS5003;36277;32.852;-116.998;2024-01-30T02:22:15;15.80;15.80;13.00
45700;PMS5003;36277;32.852;-116.998;2024-01-30T02:24:42;16.00;16.00;13.20
45700;PMS5003;36277;32.852;-116.998;2024-01-30T02:27:08;16.00;16.00;14.00
45700;PMS5003;36277;32.852;-116.998;2024-01-30T02:29:34;17.80;17.80;12.60
45700;PMS5003;36277;32.852;-116.998;2024-01-30T02:32:01;14.60;14.60;12.00
45700;PMS5003;36277;32.852;-116.998;2024-01-30T02:34:27;10.00;10.00;8.40
45700;PMS5003;36277;32.852;-116.998;2024-01-30T02:36:53;13.60;13.60;12.60
45700;PMS5003;36277;32.852;-116.998;2024-01-30T02:39:19;11.40;11.40;10.60
45700;PMS5003;36277;32.852;-116.998;2024-01-30T02:41:45;11.20;11.20;10.60
45700;PMS5003;36277;32.852;-116.998;2024-01-30T02:44:12;12.20;12.20;10.20
45700;PMS5003;36277;32.852;-116.998;2024-01-30T02:46:38;11.80;11.80;10.00
45700;PMS5003;36277;32.852;-116.998;2024-01-30T02:49:04;11.20;11.20;11.20
45700;PMS5003;36277;32.852;-116.998;2024-01-30T02:51:30;12.80;12.80;10.00
45700;PMS5003;36277;32.852;-116.998;2024-01-30T02:53:57;11.40;11.40;8.20
45700;PMS5003;36277;32.852;-116.998;2024-01-30T02:56:23;10.00;10.00;9.20
45700;PMS5003;36277;32.852;-116.998;2024-01-30T02:58:49;12.60;12.60;10.60
45700;PMS5003;36277;32.852;-116.998;2024-01-30T03:01:16;12.80;12.80;10.40
45700;PMS5003;36277;32.852;-116.998;2024-01-30T03:03:42;10.60;10.60;9.40
45700;PMS5003;36277;32.852;-116.998;2024-01-30T03:06:08;8.00;8.00;7.40
45700;PMS5003;36277;32.852;-116.998;2024-01-30T03:08:35;8.40;8.40;7.20
45700;PMS5003;36277;32.852;-116.998;2024-01-30T03:11:01;10.40;10.40;10.00
45700;PMS5003;36277;32.852;-116.998;2024-01-30T03:13:27;9.40;9.40;7.00
45700;PMS5003;36277;32.852;-116.998;2024-01-30T03:15:54;10.00;10.00;7.80
45700;PMS5003;36277;32.852;-116.998;2024-01-30T03:18:20;8.80;8.80;7.60
45700;PMS5003;36277;32.852;-116.998;2024-01-30T03:20:46;8.80;8.80;7.60
45700;PMS5003;36277;32.852;-116.998;2024-01-30T03:23:13;7.40;7.40;6.00
45700;PMS5003;36277;32.852;-116.998;2024-01-30T03:25:39;8.20;8.20;7.60
45700;PMS5003;36277;32.852;-116.998;2024-01-30T03:28:06;6.80;6.80;5.80
45700;PMS5003;36277;32.852;-116.998;2024-01-30T03:30:33;5.40;5.40;5.00
45700;PMS5003;36277;32.852;-116.998;2024-01-30T03:33:00;8.80;8.80;7.00
45700;PMS5003;36277;32.852;-116.998;2024-01-30T03:35:26;9.40;9.40;8.20
45700;PMS5003;36277;32.852;-116.998;2024-01-30T03:37:52;9.60;9.60;7.80
45700;PMS5003;36277;32.852;-116.998;2024-01-30T03:40:19;7.60;7.60;6.80
45700;PMS5003;36277;32.852;-116.998;2024-01-30T03:42:48;7.40;7.40;6.00
45700;PMS5003;36277;32.852;-116.998;2024-01-30T03:45:15;9.60;9.60;7.40
45700;PMS5003;36277;32.852;-116.998;2024-01-30T03:47:43;6.00;6.00;5.40
45700;PMS5003;36277;32.852;-116.998;2024-01-30T03:50:09;7.40;7.40;6.60
45700;PMS5003;36277;32.852;-116.998;2024-01-30T03:52:35;7.00;7.00;6.00
45700;PMS5003;36277;32.852;-116.998;2024-01-30T03:55:02;5.00;5.00;4.40
45700;PMS5003;36277;32.852;-116.998;2024-01-30T03:57:28;8.20;8.20;7.00
45700;PMS5003;36277;32.852;-116.998;2024-01-30T03:59:55;8.20;8.20;7.60
45700;PMS5003;36277;32.852;-116.998;2024-01-30T04:02:21;7.60;7.60;7.20
45700;PMS5003;36277;32.852;-116.998;2024-01-30T04:04:47;6.40;6.40;5.80
45700;PMS5003;36277;32.852;-116.998;2024-01-30T04:07:14;8.00;8.00;6.00
45700;PMS5003;36277;32.852;-116.998;2024-01-30T04:09:40;7.40;7.40;6.00
45700;PMS5003;36277;32.852;-116.998;2024-01-30T04:12:06;5.40;5.40;5.00
45700;PMS5003;36277;32.852;-116.998;2024-01-30T04:14:32;8.80;8.80;7.20
45700;PMS5003;36277;32.852;-116.998;2024-01-30T04:16:59;6.60;6.60;5.40
45700;PMS5003;36277;32.852;-116.998;2024-01-30T04:19:25;7.80;7.80;6.60
45700;PMS5003;36277;32.852;-116.998;2024-01-30T04:21:51;7.20;7.20;7.20
45700;PMS5003;36277;32.852;-116.998;2024-01-30T04:24:17;7.80;7.80;7.20
45700;PMS5003;36277;32.852;-116.998;2024-01-30T04:26:44;7.00;7.00;6.00
45700;PMS5003;36277;32.852;-116.998;2024-01-30T04:29:10;8.20;8.20;7.20
45700;PMS5003;36277;32.852;-116.998;2024-01-30T04:31:36;8.00;8.00;7.60
45700;PMS5003;36277;32.852;-116.998;2024-01-30T04:34:03;7.00;7.00;6.00
45700;PMS5003;36277;32.852;-116.998;2024-01-30T04:36:29;5.20;5.20;5.00
45700;PMS5003;36277;32.852;-116.998;2024-01-30T04:38:55;7.20;7.20;6.40
45700;PMS5003;36277;32.852;-116.998;2024-01-30T04:41:21;7.60;7.60;7.60
45700;PMS5003;36277;32.852;-116.998;2024-01-30T04:43:48;6.80;6.80;6.60
45700;PMS5003;36277;32.852;-116.998;2024-01-30T04:46:14;7.20;7.20;5.40
45700;PMS5003;36277;32.852;-116.998;2024-01-30T04:48:40;6.80;6.80;5.40
45700;PMS5003;36277;32.852;-116.998;2024-01-30T04:51:06;6.00;6.00;5.80
45700;PMS5003;36277;32.852;-116.998;2024-01-30T04:53:33;6.80;6.80;6.00
45700;PMS5003;36277;32.852;-116.998;2024-01-30T04:55:59;7.80;7.80;6.80
45700;PMS5003;36277;32.852;-116.998;2024-01-30T04:58:25;8.40;8.40;6.60
45700;PMS5003;36277;32.852;-116.998;2024-01-30T05:00:52;12.20;12.00;10.00
45700;PMS5003;36277;32.852;-116.998;2024-01-30T05:03:19;14.80;14.80;9.00
45700;PMS5003;36277;32.852;-116.998;2024-01-30T05:05:45;19.80;19.80;13.00
45700;PMS5003;36277;32.852;-116.998;2024-01-30T05:08:12;21.40;21.00;14.00
45700;PMS5003;36277;32.852;-116.998;2024-01-30T05:10:38;20.40;19.80;13.00
45700;PMS5003;36277;32.852;-116.998;2024-01-30T05:13:04;13.60;13.60;10.40
45700;PMS5003;36277;32.852;-116.998;2024-01-30T05:15:30;15.80;15.60;10.60
45700;PMS5003;36277;32.852;-116.998;2024-01-30T05:17:57;13.40;13.40;10.00
45700;PMS5003;36277;32.852;-116.998;2024-01-30T05:20:23;13.60;13.60;10.00
45700;PMS5003;36277;32.852;-116.998;2024-01-30T05:22:53;10.00;10.00;6.60
45700;PMS5003;36277;32.852;-116.998;2024-01-30T05:25:19;11.20;11.20;7.60
45700;PMS5003;36277;32.852;-116.998;2024-01-30T05:27:45;12.80;12.80;8.20
45700;PMS5003;36277;32.852;-116.998;2024-01-30T05:30:12;7.80;7.80;5.20
45700;PMS5003;36277;32.852;-116.998;2024-01-30T05:32:39;8.80;8.80;7.20
45700;PMS5003;36277;32.852;-116.998;2024-01-30T05:35:05;2.00;2.00;0.40
45700;PMS5003;36277;32.852;-116.998;2024-01-30T05:37:33;8.80;8.40;5.80
45700;PMS5003;36277;32.852;-116.998;2024-01-30T05:39:59;9.00;9.00;6.00
45700;PMS5003;36277;32.852;-116.998;2024-01-30T05:42:26;4.80;4.80;4.20
45700;PMS5003;36277;32.852;-116.998;2024-01-30T05:44:52;7.20;7.20;5.80
45700;PMS5003;36277;32.852;-116.998;2024-01-30T05:47:19;7.40;7.40;4.80
45700;PMS5003;36277;32.852;-116.998;2024-01-30T05:49:45;5.40;5.40;4.80
45700;PMS5003;36277;32.852;-116.998;2024-01-30T05:52:11;4.40;4.40;3.40
45700;PMS5003;36277;32.852;-116.998;2024-01-30T05:54:38;5.00;5.00;4.00
45700;PMS5003;36277;32.852;-116.998;2024-01-30T05:57:04;5.40;5.40;4.80
45700;PMS5003;36277;32.852;-116.998;2024-01-30T05:59:31;5.20;5.20;3.00
45700;PMS5003;36277;32.852;-116.998;2024-01-30T06:01:58;4.00;4.00;3.40
45700;PMS5003;36277;32.852;-116.998;2024-01-30T06:04:24;4.60;4.60;3.40
45700;PMS5003;36277;32.852;-116.998;2024-01-30T06:06:50;4.00;4.00;3.60
45700;PMS5003;36277;32.852;-116.998;2024-01-30T06:09:16;4.80;4.80;4.00
45700;PMS5003;36277;32.852;-116.998;2024-01-30T06:11:43;4.60;4.60;3.80
45700;PMS5003;36277;32.852;-116.998;2024-01-30T06:14:09;3.80;3.80;3.40
45700;PMS5003;36277;32.852;-116.998;2024-01-30T06:16:35;3.40;3.40;3.00
45700;PMS5003;36277;32.852;-116.998;2024-01-30T06:19:01;3.80;3.60;3.00
45700;PMS5003;36277;32.852;-116.998;2024-01-30T06:21:28;3.60;3.60;3.00
45700;PMS5003;36277;32.852;-116.998;2024-01-30T06:23:54;3.80;3.80;3.00
45700;PMS5003;36277;32.852;-116.998;2024-01-30T06:26:20;3.60;3.60;3.20
45700;PMS5003;36277;32.852;-116.998;2024-01-30T06:28:47;2.60;2.60;2.20
45700;PMS5003;36277;32.852;-116.998;2024-01-30T06:31:13;4.60;4.60;3.80
45700;PMS5003;36277;32.852;-116.998;2024-01-30T06:33:42;4.00;4.00;3.00
45700;PMS5003;36277;32.852;-116.998;2024-01-30T06:36:08;3.40;3.40;3.00
45700;PMS5003;36277;32.852;-116.998;2024-01-30T06:38:34;1.40;1.40;1.40
45700;PMS5003;36277;32.852;-116.998;2024-01-30T06:41:01;2.40;2.40;2.40
45700;PMS5003;36277;32.852;-116.998;2024-01-30T06:43:27;3.00;3.00;2.20
45700;PMS5003;36277;32.852;-116.998;2024-01-30T06:45:53;4.00;4.00;3.20
45700;PMS5003;36277;32.852;-116.998;2024-01-30T06:48:19;3.00;3.00;2.80
45700;PMS5003;36277;32.852;-116.998;2024-01-30T06:50:45;3.60;3.60;2.80
45700;PMS5003;36277;32.852;-116.998;2024-01-30T06:53:13;2.40;2.40;2.00
45700;PMS5003;36277;32.852;-116.998;2024-01-30T06:55:39;2.40;2.40;2.00
45700;PMS5003;36277;32.852;-116.998;2024-01-30T06:58:05;2.40;2.40;1.60
45700;PMS5003;36277;32.852;-116.998;2024-01-30T07:00:32;2.80;2.80;2.80
45700;PMS5003;36277;32.852;-116.998;2024-01-30T07:02:58;2.40;2.40;2.00
45700;PMS5003;36277;32.852;-116.998;2024-01-30T07:05:24;3.00;3.00;2.00
45700;PMS5003;36277;32.852;-116.998;2024-01-30T07:07:50;1.80;1.80;1.40
45700;PMS5003;36277;32.852;-116.998;2024-01-30T07:10:17;2.60;2.60;2.20
45700;PMS5003;36277;32.852;-116.998;2024-01-30T07:12:43;3.00;3.00;2.60
45700;PMS5003;36277;32.852;-116.998;2024-01-30T07:15:09;1.80;1.80;1.40
45700;PMS5003;36277;32.852;-116.998;2024-01-30T07:17:36;3.00;3.00;2.00
45700;PMS5003;36277;32.852;-116.998;2024-01-30T07:20:02;1.80;1.80;1.40
45700;PMS5003;36277;32.852;-116.998;2024-01-30T07:22:30;3.60;3.60;3.00
45700;PMS5003;36277;32.852;-116.998;2024-01-30T07:24:56;2.80;2.80;2.40
45700;PMS5003;36277;32.852;-116.998;2024-01-30T07:27:22;1.80;1.80;1.40
45700;PMS5003;36277;32.852;-116.998;2024-01-30T07:29:49;2.20;2.20;2.20
45700;PMS5003;36277;32.852;-116.998;2024-01-30T07:32:15;2.00;2.00;2.00
45700;PMS5003;36277;32.852;-116.998;2024-01-30T07:34:41;1.40;1.40;1.40
45700;PMS5003;36277;32.852;-116.998;2024-01-30T07:37:08;0.80;0.80;0.60
45700;PMS5003;36277;32.852;-116.998;2024-01-30T07:39:35;2.00;2.00;1.80
45700;PMS5003;36277;32.852;-116.998;2024-01-30T07:42:01;2.00;2.00;1.40
45700;PMS5003;36277;32.852;-116.998;2024-01-30T07:44:27;1.00;1.00;1.00
45700;PMS5003;36277;32.852;-116.998;2024-01-30T07:46:57;2.40;2.40;2.00
45700;PMS5003;36277;32.852;-116.998;2024-01-30T07:49:23;1.00;1.00;1.00
45700;PMS5003;36277;32.852;-116.998;2024-01-30T07:51:49;1.00;1.00;1.00
45700;PMS5003;36277;32.852;-116.998;2024-01-30T07:54:15;2.00;2.00;2.00
45700;PMS5003;36277;32.852;-116.998;2024-01-30T07:56:42;1.40;1.40;1.00
45700;PMS5003;36277;32.852;-116.998;2024-01-30T07:59:12;2.00;2.00;2.00
45700;PMS5003;36277;32.852;-116.998;2024-01-30T08:01:38;1.00;1.00;1.00
45700;PMS5003;36277;32.852;-116.998;2024-01-30T08:04:04;2.00;2.00;2.00
45700;PMS5003;36277;32.852;-116.998;2024-01-30T08:06:30;2.00;2.00;1.80
45700;PMS5003;36277;32.852;-116.998;2024-01-30T08:08:57;1.40;1.40;1.40
45700;PMS5003;36277;32.852;-116.998;2024-01-30T08:11:24;1.40;1.40;1.40
45700;PMS5003;36277;32.852;-116.998;2024-01-30T08:13:52;1.00;1.00;1.00
45700;PMS5003;36277;32.852;-116.998;2024-01-30T08:16:18;2.00;2.00;1.60
45700;PMS5003;36277;32.852;-116.998;2024-01-30T08:18:45;2.80;2.80;2.00
45700;PMS5003;36277;32.852;-116.998;2024-01-30T08:21:11;2.00;2.00;1.60
45700;PMS5003;36277;32.852;-116.998;2024-01-30T08:23:40;3.00;3.00;2.20
45700;PMS5003;36277;32.852;-116.998;2024-01-30T08:26:08;0.60;0.60;0.00
45700;PMS5003;36277;32.852;-116.998;2024-01-30T08:28:34;3.00;3.00;3.00
45700;PMS5003;36277;32.852;-116.998;2024-01-30T08:31:00;3.60;3.60;3.40
45700;PMS5003;36277;32.852;-116.998;2024-01-30T08:33:26;3.40;3.40;3.00
45700;PMS5003;36277;32.852;-116.998;2024-01-30T08:35:53;4.40;4.40;4.40
45700;PMS5003;36277;32.852;-116.998;2024-01-30T08:38:19;5.00;5.00;4.00
45700;PMS5003;36277;32.852;-116.998;2024-01-30T08:40:46;6.60;6.60;4.60
45700;PMS5003;36277;32.852;-116.998;2024-01-30T08:43:12;5.00;5.00;5.00
45700;PMS5003;36277;32.852;-116.998;2024-01-30T08:45:38;5.60;5.60;4.00
45700;PMS5003;36277;32.852;-116.998;2024-01-30T08:48:05;6.00;6.00;4.80
45700;PMS5003;36277;32.852;-116.998;2024-01-30T08:50:31;7.00;7.00;5.60
45700;PMS5003;36277;32.852;-116.998;2024-01-30T08:52:58;6.00;6.00;6.00
45700;PMS5003;36277;32.852;-116.998;2024-01-30T08:55:24;7.80;7.80;6.00
45700;PMS5003;36277;32.852;-116.998;2024-01-30T08:57:50;7.80;7.80;6.00
45700;PMS5003;36277;32.852;-116.998;2024-01-30T09:00:17;6.40;6.40;5.00
45700;PMS5003;36277;32.852;-116.998;2024-01-30T09:02:43;9.00;9.00;6.80
45700;PMS5003;36277;32.852;-116.998;2024-01-30T09:05:10;7.20;7.20;6.00
45700;PMS5003;36277;32.852;-116.998;2024-01-30T09:07:36;7.40;7.40;6.60
45700;PMS5003;36277;32.852;-116.998;2024-01-30T09:10:02;8.00;8.00;6.00
45700;PMS5003;36277;32.852;-116.998;2024-01-30T09:12:29;6.40;6.40;5.40
45700;PMS5003;36277;32.852;-116.998;2024-01-30T09:14:55;7.00;7.00;6.00
45700;PMS5003;36277;32.852;-116.998;2024-01-30T09:17:22;6.00;6.00;5.00
45700;PMS5003;36277;32.852;-116.998;2024-01-30T09:19:48;7.40;7.40;6.20
45700;PMS5003;36277;32.852;-116.998;2024-01-30T09:22:14;7.60;7.60;6.80
45700;PMS5003;36277;32.852;-116.998;2024-01-30T09:24:40;8.60;7.80;6.00
45700;PMS5003;36277;32.852;-116.998;2024-01-30T09:27:07;8.00;8.00;6.40
45700;PMS5003;36277;32.852;-116.998;2024-01-30T09:29:33;7.00;7.00;6.00
45700;PMS5003;36277;32.852;-116.998;2024-01-30T09:32:01;7.40;7.40;6.00
45700;PMS5003;36277;32.852;-116.998;2024-01-30T09:34:27;8.00;8.00;6.40
45700;PMS5003;36277;32.852;-116.998;2024-01-30T09:36:54;7.80;7.80;6.00
45700;PMS5003;36277;32.852;-116.998;2024-01-30T09:39:23;4.40;4.20;4.00
45700;PMS5003;36277;32.852;-116.998;2024-01-30T09:42:00;5.00;5.00;4.00
45700;PMS5003;36277;32.852;-116.998;2024-01-30T09:44:28;6.00;6.00;5.00
45700;PMS5003;36277;32.852;-116.998;2024-01-30T09:46:56;6.20;6.20;5.20
45700;PMS5003;36277;32.852;-116.998;2024-01-30T09:49:29;5.00;5.00;4.00
45700;PMS5003;36277;32.852;-116.998;2024-01-30T09:52:00;3.40;3.40;2.80
45700;PMS5003;36277;32.852;-116.998;2024-01-30T09:54:26;5.40;5.40;5.00
45700;PMS5003;36277;32.852;-116.998;2024-01-30T09:56:57;7.00;7.00;5.80
45700;PMS5003;36277;32.852;-116.998;2024-01-30T09:59:24;4.40;4.40;3.20
45700;PMS5003;36277;32.852;-116.998;2024-01-30T10:01:50;5.60;5.60;5.00
45700;PMS5003;36277;32.852;-116.998;2024-01-30T10:04:17;4.20;4.20;3.20
45700;PMS5003;36277;32.852;-116.998;2024-01-30T10:06:43;5.60;5.60;5.00
45700;PMS5003;36277;32.852;-116.998;2024-01-30T10:09:10;5.00;5.00;4.00
45700;PMS5003;36277;32.852;-116.998;2024-01-30T10:11:36;5.00;5.00;3.80
45700;PMS5003;36277;32.852;-116.998;2024-01-30T10:14:03;3.60;3.60;2.60
45700;PMS5003;36277;32.852;-116.998;2024-01-30T10:16:29;4.40;4.40;3.00
45700;PMS5003;36277;32.852;-116.998;2024-01-30T10:18:55;5.40;5.40;3.60
45700;PMS5003;36277;32.852;-116.998;2024-01-30T10:21:21;5.20;5.20;5.00
45700;PMS5003;36277;32.852;-116.998;2024-01-30T10:23:49;3.00;3.00;2.00
45700;PMS5003;36277;32.852;-116.998;2024-01-30T10:26:18;5.60;5.60;3.80
45700;PMS5003;36277;32.852;-116.998;2024-01-30T10:28:44;4.80;4.80;4.00
45700;PMS5003;36277;32.852;-116.998;2024-01-30T10:31:11;3.40;3.40;3.40
45700;PMS5003;36277;32.852;-116.998;2024-01-30T10:33:41;4.00;4.00;4.00
45700;PMS5003;36277;32.852;-116.998;2024-01-30T10:36:09;5.00;5.00;4.00
45700;PMS5003;36277;32.852;-116.998;2024-01-30T10:38:42;5.00;5.00;4.00
45700;PMS5003;36277;32.852;-116.998;2024-01-30T10:41:12;4.00;4.00;3.60
45700;PMS5003;36277;32.852;-116.998;2024-01-30T10:43:41;3.60;3.60;3.00
45700;PMS5003;36277;32.852;-116.998;2024-01-30T10:46:10;5.00;5.00;3.00
45700;PMS5003;36277;32.852;-116.998;2024-01-30T10:48:43;2.40;2.40;2.00
45700;PMS5003;36277;32.852;-116.998;2024-01-30T10:51:16;3.40;3.40;3.00
45700;PMS5003;36277;32.852;-116.998;2024-01-30T10:53:44;1.00;1.00;1.00
45700;PMS5003;36277;32.852;-116.998;2024-01-30T10:56:13;4.40;4.40;4.00
45700;PMS5003;36277;32.852;-116.998;2024-01-30T10:58:42;3.00;3.00;3.00
45700;PMS5003;36277;32.852;-116.998;2024-01-30T11:01:08;3.60;3.60;3.00
45700;PMS5003;36277;32.852;-116.998;2024-01-30T11:03:35;3.00;3.00;3.00
45700;PMS5003;36277;32.852;-116.998;2024-01-30T11:06:03;3.20;3.20;3.00
45700;PMS5003;36277;32.852;-116.998;2024-01-30T11:08:31;3.00;3.00;2.80
45700;PMS5003;36277;32.852;-116.998;2024-01-30T11:10:58;3.80;3.80;3.60
45700;PMS5003;36277;32.852;-116.998;2024-01-30T11:13:28;3.00;3.00;2.00
45700;PMS5003;36277;32.852;-116.998;2024-01-30T11:15:55;4.00;4.00;3.80
45700;PMS5003;36277;32.852;-116.998;2024-01-30T11:18:31;3.40;3.40;3.00
45700;PMS5003;36277;32.852;-116.998;2024-01-30T11:20:58;3.40;3.40;2.40
45700;PMS5003;36277;32.852;-116.998;2024-01-30T11:23:30;3.80;3.80;3.00
45700;PMS5003;36277;32.852;-116.998;2024-01-30T11:25:58;2.00;2.00;2.00
45700;PMS5003;36277;32.852;-116.998;2024-01-30T11:28:32;4.00;4.00;3.00
45700;PMS5003;36277;32.852;-116.998;2024-01-30T11:31:05;3.20;3.20;2.80
45700;PMS5003;36277;32.852;-116.998;2024-01-30T11:33:32;2.00;2.00;2.00
45700;PMS5003;36277;32.852;-116.998;2024-01-30T11:35:59;0.00;0.00;0.00
45700;PMS5003;36277;32.852;-116.998;2024-01-30T11:38:32;2.20;2.20;1.80
45700;PMS5003;36277;32.852;-116.998;2024-01-30T11:40:58;3.00;3.00;2.00
45700;PMS5003;36277;32.852;-116.998;2024-01-30T11:43:26;2.80;2.80;2.00
45700;PMS5003;36277;32.852;-116.998;2024-01-30T11:45:52;2.40;2.40;2.00
45700;PMS5003;36277;32.852;-116.998;2024-01-30T11:48:18;2.00;2.00;2.00
45700;PMS5003;36277;32.852;-116.998;2024-01-30T11:50:48;3.00;3.00;2.00
45700;PMS5003;36277;32.852;-116.998;2024-01-30T11:53:18;3.00;3.00;2.60
45700;PMS5003;36277;32.852;-116.998;2024-01-30T11:55:53;3.40;3.40;2.60
45700;PMS5003;36277;32.852;-116.998;2024-01-30T11:58:20;2.40;2.40;2.40
45700;PMS5003;36277;32.852;-116.998;2024-01-30T12:00:55;2.60;2.60;2.00
45700;PMS5003;36277;32.852;-116.998;2024-01-30T12:03:22;2.00;2.00;2.00
45700;PMS5003;36277;32.852;-116.998;2024-01-30T12:05:54;1.40;1.40;1.40
45700;PMS5003;36277;32.852;-116.998;2024-01-30T12:08:23;2.00;2.00;1.00
45700;PMS5003;36277;32.852;-116.998;2024-01-30T12:10:56;2.00;2.00;2.00
45700;PMS5003;36277;32.852;-116.998;2024-01-30T12:13:25;1.60;1.60;1.00
45700;PMS5003;36277;32.852;-116.998;2024-01-30T12:15:52;0.00;0.00;0.00
45700;PMS5003;36277;32.852;-116.998;2024-01-30T12:18:18;3.00;3.00;2.40
45700;PMS5003;36277;32.852;-116.998;2024-01-30T12:20:45;2.20;2.20;2.00
45700;PMS5003;36277;32.852;-116.998;2024-01-30T12:23:21;1.20;1.20;1.20
45700;PMS5003;36277;32.852;-116.998;2024-01-30T12:25:51;2.60;2.60;1.60
45700;PMS5003;36277;32.852;-116.998;2024-01-30T12:28:19;3.00;3.00;2.00
45700;PMS5003;36277;32.852;-116.998;2024-01-30T12:30:46;1.00;1.00;1.00
45700;PMS5003;36277;32.852;-116.998;2024-01-30T12:33:16;1.80;1.80;1.40
45700;PMS5003;36277;32.852;-116.998;2024-01-30T12:35:46;2.00;2.00;1.60
45700;PMS5003;36277;32.852;-116.998;2024-01-30T12:38:13;2.00;2.00;1.40
45700;PMS5003;36277;32.852;-116.998;2024-01-30T12:40:40;2.20;2.20;1.60
45700;PMS5003;36277;32.852;-116.998;2024-01-30T12:43:06;1.60;1.60;1.20
45700;PMS5003;36277;32.852;-116.998;2024-01-30T12:45:33;2.00;2.00;1.60
45700;PMS5003;36277;32.852;-116.998;2024-01-30T12:47:59;1.60;1.60;1.40
45700;PMS5003;36277;32.852;-116.998;2024-01-30T12:50:26;2.00;2.00;1.00
45700;PMS5003;36277;32.852;-116.998;2024-01-30T12:52:52;2.60;2.60;2.60
45700;PMS5003;36277;32.852;-116.998;2024-01-30T12:55:18;1.00;1.00;1.00
45700;PMS5003;36277;32.852;-116.998;2024-01-30T12:57:44;1.00;1.00;1.00
45700;PMS5003;36277;32.852;-116.998;2024-01-30T13:00:11;1.80;1.80;1.40
45700;PMS5003;36277;32.852;-116.998;2024-01-30T13:02:37;1.60;1.60;1.00
45700;PMS5003;36277;32.852;-116.998;2024-01-30T13:05:04;1.00;1.00;1.00
45700;PMS5003;36277;32.852;-116.998;2024-01-30T13:07:31;1.00;1.00;1.00
45700;PMS5003;36277;32.852;-116.998;2024-01-30T13:09:58;1.00;1.00;1.00
45700;PMS5003;36277;32.852;-116.998;2024-01-30T13:12:28;1.00;1.00;1.00
45700;PMS5003;36277;32.852;-116.998;2024-01-30T13:14:54;1.00;1.00;1.00
45700;PMS5003;36277;32.852;-116.998;2024-01-30T13:17:21;1.00;1.00;1.00
45700;PMS5003;36277;32.852;-116.998;2024-01-30T13:19:47;0.40;0.40;0.40
45700;PMS5003;36277;32.852;-116.998;2024-01-30T13:22:14;1.00;1.00;1.00
45700;PMS5003;36277;32.852;-116.998;2024-01-30T13:24:41;1.20;1.20;1.00
45700;PMS5003;36277;32.852;-116.998;2024-01-30T13:27:07;1.00;1.00;1.00
45700;PMS5003;36277;32.852;-116.998;2024-01-30T13:29:34;1.00;1.00;1.00
45700;PMS5003;36277;32.852;-116.998;2024-01-30T13:32:00;1.00;1.00;1.00
45700;PMS5003;36277;32.852;-116.998;2024-01-30T13:34:26;1.60;1.60;1.60
45700;PMS5003;36277;32.852;-116.998;2024-01-30T13:36:53;1.40;1.40;1.00